createdAt,value
2018-08-24T00:04:27.429Z,3.42
2018-08-24T00:09:23.354Z,3.50
2018-08-24T00:14:16.412Z,3.50
2018-08-24T00:19:12.686Z,3.50
2018-08-24T00:24:06.487Z,3.50
2018-08-24T00:29:00.513Z,3.77
2018-08-24T00:33:54.038Z,3.45
2018-08-24T00:38:46.966Z,3.42
2018-08-24T00:43:39.916Z,3.15
2018-08-24T00:48:32.975Z,3.08
2018-08-24T00:53:25.922Z,3.25
2018-08-24T00:58:19.176Z,3.12
2018-08-24T01:03:14.086Z,3.30
2018-08-24T01:08:08.169Z,3.37
2018-08-24T01:13:01.216Z,3.33
2018-08-24T01:17:59.762Z,3.20
2018-08-24T01:22:52.759Z,3.62
2018-08-24T01:27:46.029Z,3.60
2018-08-24T01:32:38.978Z,3.55
2018-08-24T01:37:31.964Z,3.60
2018-08-24T01:42:24.844Z,3.90
2018-08-24T01:47:18.514Z,3.83
2018-08-24T01:52:12.154Z,3.75
2018-08-24T01:57:05.362Z,3.77
2018-08-24T02:01:58.414Z,3.50
2018-08-24T02:06:51.561Z,3.80
2018-08-24T02:11:44.882Z,3.60
2018-08-24T02:16:38.857Z,3.72
2018-08-24T02:21:39.630Z,3.40
2018-08-24T02:26:32.619Z,3.37
2018-08-24T02:31:25.799Z,3.70
2018-08-24T02:36:18.925Z,3.60
2018-08-24T02:41:11.876Z,3.75
2018-08-24T02:46:05.043Z,3.70
2018-08-24T02:50:58.074Z,3.80
2018-08-24T02:55:51.126Z,3.87
2018-08-24T03:00:44.158Z,4.08
2018-08-24T03:05:37.207Z,3.90
2018-08-24T03:10:31.207Z,4.08
2018-08-24T03:15:24.318Z,4.12
2018-08-24T03:20:17.371Z,4.35
2018-08-24T03:25:10.676Z,3.80
2018-08-24T03:30:03.846Z,4.17
2018-08-24T03:34:56.950Z,4.20
2018-08-24T03:39:51.637Z,4.20
2018-08-24T03:44:44.714Z,4.12
2018-08-24T03:49:38.486Z,4.10
2018-08-24T03:54:31.861Z,4.25
2018-08-24T03:59:25.426Z,4.20
2018-08-24T04:04:18.382Z,4.00
2018-08-24T04:09:12.010Z,4.20
2018-08-24T04:14:05.204Z,4.58
2018-08-24T04:18:58.303Z,4.35
2018-08-24T04:23:51.594Z,4.30
2018-08-24T04:28:44.755Z,4.20
2018-08-24T04:33:37.786Z,4.65
2018-08-24T04:38:30.782Z,4.03
2018-08-24T04:43:23.783Z,5.30
2018-08-24T04:48:16.769Z,4.70
2018-08-24T04:53:09.762Z,4.42
2018-08-24T04:58:03.204Z,4.30
2018-08-24T05:02:56.317Z,4.40
2018-08-24T05:07:49.385Z,4.42
2018-08-24T05:12:42.379Z,4.30
2018-08-24T05:17:35.731Z,4.50
2018-08-24T05:22:28.700Z,4.53
2018-08-24T05:27:21.653Z,4.20
2018-08-24T05:32:14.737Z,4.50
2018-08-24T05:37:07.969Z,4.75
2018-08-24T05:42:01.038Z,4.70
2018-08-24T05:46:54.083Z,4.95
2018-08-24T05:51:48.149Z,4.37
2018-08-24T05:56:41.173Z,4.00
2018-08-24T06:01:34.199Z,4.40
2018-08-24T06:06:28.075Z,4.67
2018-08-24T06:11:21.180Z,5.25
2018-08-24T06:16:14.240Z,4.90
2018-08-24T06:21:07.139Z,4.30
2018-08-24T06:26:00.094Z,4.20
2018-08-24T06:30:53.105Z,4.05
2018-08-24T06:35:48.191Z,3.98
2018-08-24T06:40:41.636Z,4.12
2018-08-24T06:45:34.759Z,3.92
2018-08-24T06:50:31.278Z,4.67
2018-08-24T06:55:24.442Z,4.12
2018-08-24T07:00:23.015Z,3.83
2018-08-24T07:05:16.182Z,4.35
2018-08-24T07:10:09.209Z,4.75
2018-08-24T07:15:02.140Z,4.47
2018-08-24T07:19:55.505Z,4.70
2018-08-24T07:24:48.654Z,5.95
2018-08-24T07:29:42.603Z,6.20
2018-08-24T07:34:35.574Z,5.42
2018-08-24T07:39:28.631Z,5.10
2018-08-24T07:44:21.761Z,4.60
2018-08-24T07:49:14.781Z,4.50
2018-08-24T07:54:07.846Z,3.80
2018-08-24T07:59:01.906Z,4.03
2018-08-24T08:03:54.877Z,3.75
2018-08-24T08:08:48.346Z,3.37
2018-08-24T08:13:41.336Z,3.92
2018-08-24T08:18:34.490Z,3.47
2018-08-24T08:23:28.429Z,3.65
2018-08-24T08:28:21.405Z,3.45
2018-08-24T08:33:14.330Z,4.15
2018-08-24T08:38:07.319Z,3.80
2018-08-24T08:43:00.417Z,3.80
2018-08-24T08:47:53.666Z,3.80
2018-08-24T08:52:46.727Z,4.50
2018-08-24T08:57:40.187Z,4.15
2018-08-24T09:02:33.330Z,4.42
2018-08-24T09:07:26.469Z,4.22
2018-08-24T09:12:19.621Z,4.70
2018-08-24T09:17:18.121Z,4.58
2018-08-24T09:22:16.721Z,4.67
2018-08-24T09:27:15.364Z,4.65
2018-08-24T09:32:08.754Z,4.28
2018-08-24T09:37:05.836Z,4.45
2018-08-24T09:42:00.263Z,4.67
2018-08-24T09:46:58.886Z,4.92
2018-08-24T09:51:51.888Z,4.80
2018-08-24T09:56:44.905Z,5.00
2018-08-24T10:01:43.255Z,5.00
2018-08-24T10:06:41.850Z,5.50
2018-08-24T10:11:34.822Z,6.10
2018-08-24T10:16:27.811Z,5.70
2018-08-24T10:21:21.218Z,5.67
2018-08-24T10:26:14.560Z,5.45
2018-08-24T10:31:08.350Z,6.15
2018-08-24T10:36:01.734Z,6.08
2018-08-24T10:40:54.934Z,5.50
2018-08-24T10:45:48.322Z,6.05
2018-08-24T10:50:41.467Z,5.50
2018-08-24T10:55:34.404Z,5.33
2018-08-24T11:00:27.319Z,5.15
2018-08-24T11:05:20.425Z,6.00
2018-08-24T11:10:13.402Z,5.65
2018-08-24T11:15:06.993Z,5.40
2018-08-24T11:20:00.492Z,6.00
2018-08-24T11:24:53.503Z,5.90
2018-08-24T11:29:48.589Z,5.80
2018-08-24T11:34:41.692Z,5.50
2018-08-24T11:39:34.679Z,5.10
2018-08-24T11:44:27.802Z,6.25
2018-08-24T11:49:20.762Z,6.35
2018-08-24T11:54:13.868Z,6.35
2018-08-24T11:59:06.761Z,6.10
2018-08-24T12:03:59.749Z,6.55
2018-08-24T12:08:52.813Z,6.37
2018-08-24T12:13:46.382Z,6.22
2018-08-24T12:18:39.788Z,6.33
2018-08-24T12:23:32.891Z,6.40
2018-08-24T12:28:26.102Z,6.17
2018-08-24T12:33:19.733Z,5.80
2018-08-24T12:38:12.813Z,6.15
2018-08-24T12:43:05.841Z,5.90
2018-08-24T12:47:59.083Z,6.20
2018-08-24T12:52:52.098Z,6.12
2018-08-24T12:57:45.060Z,6.40
2018-08-24T13:02:38.164Z,6.37
2018-08-24T13:07:31.667Z,6.78
2018-08-24T13:12:24.834Z,6.50
2018-08-24T13:17:18.680Z,6.85
2018-08-24T13:22:11.626Z,6.40
2018-08-24T13:27:04.950Z,6.50
2018-08-24T13:31:57.946Z,6.70
2018-08-24T13:36:51.102Z,7.05
2018-08-24T13:41:44.247Z,6.62
2018-08-24T13:46:37.659Z,6.80
2018-08-24T13:51:30.723Z,6.70
2018-08-24T13:56:23.882Z,7.28
2018-08-24T14:01:16.973Z,6.83
2018-08-24T14:06:09.927Z,6.92
2018-08-24T14:11:03.032Z,6.72
2018-08-24T14:15:56.148Z,7.08
2018-08-24T14:20:49.224Z,6.95
2018-08-24T14:25:42.954Z,6.83
2018-08-24T14:30:36.751Z,6.75
2018-08-24T14:35:30.240Z,7.20
2018-08-24T14:40:23.413Z,6.62
2018-08-24T14:45:16.377Z,6.90
2018-08-24T14:50:10.663Z,6.87
2018-08-24T14:55:03.716Z,6.85
2018-08-24T14:59:56.699Z,7.05
2018-08-24T15:04:49.900Z,7.70
2018-08-24T15:09:43.355Z,8.33
2018-08-24T15:14:36.335Z,9.08
2018-08-24T15:19:29.363Z,7.58
2018-08-24T15:24:22.514Z,6.67
2018-08-24T15:29:15.703Z,6.65
2018-08-24T15:34:08.756Z,7.03
2018-08-24T15:39:01.785Z,7.05
2018-08-24T15:43:55.347Z,7.42
2018-08-24T15:48:48.630Z,7.20
2018-08-24T15:53:41.684Z,7.30
2018-08-24T15:58:34.700Z,7.67
2018-08-24T16:03:27.819Z,7.30
2018-08-24T16:08:20.796Z,7.30
2018-08-24T16:13:13.694Z,7.00
2018-08-24T16:18:12.274Z,6.65
2018-08-24T16:23:06.004Z,7.40
2018-08-24T16:27:59.187Z,7.45
2018-08-24T16:32:52.177Z,7.00
2018-08-24T16:37:45.148Z,7.70
2018-08-24T16:42:38.572Z,7.10
2018-08-24T16:47:32.002Z,7.78
2018-08-24T16:52:25.064Z,8.13
2018-08-24T16:57:18.191Z,8.23
2018-08-24T17:02:11.540Z,8.23
2018-08-24T17:07:04.755Z,8.08
2018-08-24T17:11:57.800Z,7.87
2018-08-24T17:16:50.874Z,8.00
2018-08-24T17:21:43.974Z,8.23
2018-08-24T17:26:36.875Z,8.95
2018-08-24T17:31:29.796Z,8.13
2018-08-24T17:36:22.694Z,8.33
2018-08-24T17:41:15.839Z,8.70
2018-08-24T17:46:08.810Z,8.25
2018-08-24T17:51:01.861Z,8.78
2018-08-24T17:55:55.104Z,8.20
2018-08-24T18:00:48.105Z,8.55
2018-08-24T18:05:41.186Z,7.97
2018-08-24T18:10:34.258Z,8.15
2018-08-24T18:15:27.210Z,8.95
2018-08-24T18:20:20.336Z,8.35
2018-08-24T18:25:13.469Z,8.45
2018-08-24T18:30:06.621Z,9.13
2018-08-24T18:34:59.985Z,7.75
2018-08-24T18:39:53.000Z,8.25
2018-08-24T18:44:45.920Z,8.10
2018-08-24T18:49:38.958Z,8.30
2018-08-24T18:54:34.859Z,8.35
2018-08-24T18:59:27.871Z,8.65
2018-08-24T19:04:20.789Z,8.65
2018-08-24T19:09:14.843Z,8.45
2018-08-24T19:14:08.331Z,9.20
2018-08-24T19:19:06.718Z,8.68
2018-08-24T19:23:59.641Z,9.58
2018-08-24T19:28:58.213Z,9.80
2018-08-24T19:33:51.218Z,9.33
2018-08-24T19:38:44.218Z,9.90
2018-08-24T19:43:37.231Z,9.45
2018-08-24T19:48:35.635Z,9.43
2018-08-24T19:53:28.572Z,9.43
2018-08-24T19:58:26.904Z,9.35
2018-08-24T20:03:19.971Z,9.78
2018-08-24T20:08:18.584Z,11.22
2018-08-24T20:13:11.681Z,9.18
2018-08-24T20:18:04.894Z,9.85
2018-08-24T20:22:58.052Z,9.35
2018-08-24T20:27:50.995Z,9.25
2018-08-24T20:32:44.020Z,9.70
2018-08-24T20:37:37.071Z,9.40
2018-08-24T20:42:30.079Z,9.93
2018-08-24T20:47:23.140Z,10.10
2018-08-24T20:52:16.154Z,10.70
2018-08-24T20:57:09.138Z,9.88
2018-08-24T21:02:02.276Z,9.80
2018-08-24T21:06:55.480Z,9.78
2018-08-24T21:11:48.539Z,9.68
2018-08-24T21:16:41.566Z,10.10
2018-08-24T21:21:34.675Z,9.83
2018-08-24T21:26:27.734Z,9.85
2018-08-24T21:31:20.829Z,9.28
2018-08-24T21:36:13.890Z,9.60
2018-08-24T21:41:06.880Z,9.15
2018-08-24T21:45:59.954Z,9.35
2018-08-24T21:50:52.985Z,9.55
2018-08-24T21:55:45.929Z,9.45
2018-08-24T22:00:40.057Z,9.53
2018-08-24T22:05:33.086Z,9.18
2018-08-24T22:10:26.206Z,8.98
2018-08-24T22:15:19.183Z,9.80
2018-08-24T22:20:12.306Z,9.85
2018-08-24T22:25:05.536Z,9.10
2018-08-24T22:29:58.668Z,8.35
2018-08-24T22:34:51.745Z,9.05
2018-08-24T22:39:44.892Z,9.28
2018-08-24T22:44:38.146Z,9.30
2018-08-24T22:49:31.337Z,9.00
2018-08-24T22:54:24.292Z,9.68
2018-08-24T22:59:17.402Z,9.15
2018-08-24T23:04:10.334Z,8.98
2018-08-24T23:09:04.283Z,8.85
2018-08-24T23:13:57.302Z,8.65
2018-08-24T23:18:50.269Z,8.83
2018-08-24T23:23:43.317Z,8.75
2018-08-24T23:28:36.367Z,8.83
2018-08-24T23:33:29.358Z,9.38
2018-08-24T23:38:22.301Z,8.45
2018-08-24T23:43:15.298Z,9.40
2018-08-24T23:48:08.305Z,8.48
2018-08-24T23:53:01.370Z,8.60
2018-08-24T23:57:54.266Z,9.40
